createdAt,value
2019-02-16T00:00:40.047Z,76.73
2019-02-16T00:01:40.048Z,77.29
2019-02-16T00:03:32.940Z,78.05
2019-02-16T00:04:32.951Z,77.58
2019-02-16T00:06:25.851Z,77.64
2019-02-16T00:07:25.858Z,77.73
2019-02-16T00:09:18.747Z,77.83
2019-02-16T00:10:18.761Z,77.92
2019-02-16T00:12:11.668Z,77.92
2019-02-16T00:13:11.663Z,77.83
2019-02-16T00:15:04.556Z,78.39
2019-02-16T00:16:04.569Z,78.58
2019-02-16T00:17:57.464Z,78.30
2019-02-16T00:18:57.468Z,78.49
2019-02-16T00:20:50.370Z,78.87
2019-02-16T00:21:50.371Z,78.72
2019-02-16T00:23:43.264Z,78.39
2019-02-16T00:24:43.280Z,78.49
2019-02-16T00:26:36.178Z,78.39
2019-02-16T00:27:36.179Z,78.49
2019-02-16T00:29:29.075Z,78.49
2019-02-16T00:30:29.085Z,78.72
2019-02-16T00:32:21.985Z,78.58
2019-02-16T00:33:21.998Z,78.67
2019-02-16T00:35:14.879Z,78.62
2019-02-16T00:36:14.888Z,78.53
2019-02-16T00:38:07.792Z,78.67
2019-02-16T00:39:07.796Z,78.91
2019-02-16T00:41:01.055Z,78.62
2019-02-16T00:42:00.700Z,78.62
2019-02-16T00:43:53.599Z,78.62
2019-02-16T00:44:53.600Z,78.43
2019-02-16T00:46:46.502Z,78.43
2019-02-16T00:47:46.507Z,78.34
2019-02-16T00:49:39.400Z,78.62
2019-02-16T00:50:39.409Z,78.34
2019-02-16T00:52:32.312Z,77.96
2019-02-16T00:53:32.314Z,77.92
2019-02-16T00:55:25.205Z,77.92
2019-02-16T00:56:25.215Z,78.49
2019-02-16T00:58:18.119Z,78.53
2019-02-16T00:59:18.122Z,78.58
2019-02-16T01:01:11.013Z,78.77
2019-02-16T01:02:11.023Z,79.06
2019-02-16T01:04:03.924Z,78.53
2019-02-16T01:05:03.928Z,78.49
2019-02-16T01:06:56.829Z,79.15
2019-02-16T01:07:56.830Z,78.87
2019-02-16T01:09:49.724Z,79.00
2019-02-16T01:10:49.736Z,78.91
2019-02-16T01:12:42.642Z,79.28
2019-02-16T01:13:42.637Z,78.53
2019-02-16T01:15:35.533Z,78.62
2019-02-16T01:16:35.543Z,78.77
2019-02-16T01:18:28.448Z,78.91
2019-02-16T01:19:28.445Z,79.10
2019-02-16T01:21:23.033Z,78.58
2019-02-16T01:22:21.351Z,78.49
2019-02-16T01:24:14.249Z,78.49
2019-02-16T01:25:14.249Z,78.49
2019-02-16T01:27:07.159Z,78.96
2019-02-16T01:28:07.152Z,78.77
2019-02-16T01:30:00.046Z,79.15
2019-02-16T01:31:00.056Z,79.15
2019-02-16T01:32:52.962Z,79.25
2019-02-16T01:33:52.960Z,79.44
2019-02-16T01:35:45.851Z,79.53
2019-02-16T01:36:45.861Z,79.25
2019-02-16T01:38:38.764Z,79.91
2019-02-16T01:39:38.766Z,79.72
2019-02-16T01:41:31.660Z,79.63
2019-02-16T01:42:31.671Z,79.82
2019-02-16T01:44:24.574Z,79.53
2019-02-16T01:45:24.573Z,80.00
2019-02-16T01:47:17.510Z,79.63
2019-02-16T01:48:17.514Z,79.63
2019-02-16T01:50:10.408Z,79.91
2019-02-16T01:51:10.418Z,79.82
2019-02-16T01:53:03.320Z,79.72
2019-02-16T01:54:03.321Z,80.48
2019-02-16T01:55:56.216Z,80.10
2019-02-16T01:56:56.224Z,80.48
2019-02-16T01:58:49.124Z,80.15
2019-02-16T01:59:49.126Z,80.29
2019-02-16T02:01:42.018Z,80.25
2019-02-16T02:02:42.029Z,80.44
2019-02-16T02:04:34.929Z,80.44
2019-02-16T02:05:34.931Z,80.25
2019-02-16T02:07:27.834Z,80.25
2019-02-16T02:08:27.837Z,80.82
2019-02-16T02:10:20.729Z,80.91
2019-02-16T02:11:20.740Z,81.10
2019-02-16T02:13:13.640Z,81.20
2019-02-16T02:14:13.642Z,81.57
2019-02-16T02:16:06.534Z,81.29
2019-02-16T02:17:06.546Z,81.67
2019-02-16T02:18:59.446Z,81.48
2019-02-16T02:19:59.449Z,81.48
2019-02-16T02:21:52.342Z,81.48
2019-02-16T02:22:52.349Z,81.57
2019-02-16T02:24:45.249Z,81.29
2019-02-16T02:25:45.252Z,81.95
2019-02-16T02:27:38.157Z,81.48
2019-02-16T02:28:38.153Z,81.48
2019-02-16T02:30:31.050Z,81.76
2019-02-16T02:31:31.058Z,81.86
2019-02-16T02:33:24.455Z,82.14
2019-02-16T02:34:24.450Z,82.24
2019-02-16T02:36:17.342Z,81.95
2019-02-16T02:37:17.356Z,82.24
2019-02-16T02:39:10.257Z,82.24
2019-02-16T02:40:10.255Z,81.95
2019-02-16T02:42:03.145Z,82.05
2019-02-16T02:43:03.155Z,81.95
2019-02-16T02:44:56.071Z,81.95
2019-02-16T02:45:56.069Z,82.05
2019-02-16T02:47:48.968Z,81.95
2019-02-16T02:48:48.970Z,81.57
2019-02-16T02:50:41.863Z,81.76
2019-02-16T02:51:51.726Z,82.05
2019-02-16T02:53:34.781Z,81.86
2019-02-16T02:54:34.783Z,82.14
2019-02-16T02:56:27.679Z,82.24
2019-02-16T02:57:27.689Z,82.43
2019-02-16T02:59:20.587Z,82.33
2019-02-16T03:00:20.586Z,82.81
2019-02-16T03:02:13.486Z,82.81
2019-02-16T03:03:13.498Z,82.86
2019-02-16T03:05:06.395Z,82.81
2019-02-16T03:06:06.398Z,82.90
2019-02-16T03:08:00.300Z,82.81
2019-02-16T03:09:00.300Z,83.18
2019-02-16T03:10:53.193Z,82.67
2019-02-16T03:11:53.202Z,83.37
2019-02-16T03:13:46.109Z,83.05
2019-02-16T03:14:46.108Z,83.05
2019-02-16T03:16:39.018Z,83.18
2019-02-16T03:17:39.011Z,83.09
2019-02-16T03:19:31.919Z,83.24
2019-02-16T03:20:31.924Z,83.66
2019-02-16T03:22:24.810Z,83.71
2019-02-16T03:23:24.824Z,83.62
2019-02-16T03:25:17.724Z,83.47
2019-02-16T03:26:17.721Z,83.85
2019-02-16T03:28:10.621Z,83.62
2019-02-16T03:29:10.619Z,83.37
2019-02-16T03:31:03.540Z,83.85
2019-02-16T03:32:03.531Z,83.52
2019-02-16T03:33:56.422Z,83.66
2019-02-16T03:34:56.422Z,83.71
2019-02-16T03:36:49.311Z,83.66
2019-02-16T03:37:49.330Z,84.23
2019-02-16T03:39:42.716Z,84.09
2019-02-16T03:40:42.718Z,83.75
2019-02-16T03:42:35.607Z,83.66
2019-02-16T03:43:35.619Z,84.28
2019-02-16T03:45:28.516Z,83.81
2019-02-16T03:46:28.518Z,83.62
2019-02-16T03:48:21.418Z,83.85
2019-02-16T03:49:21.418Z,83.85
2019-02-16T03:51:14.319Z,83.81
2019-02-16T03:52:14.433Z,83.81
2019-02-16T03:54:07.226Z,83.81
2019-02-16T03:55:07.227Z,83.81
2019-02-16T03:57:00.121Z,83.90
2019-02-16T03:58:00.130Z,83.90
2019-02-16T03:59:53.027Z,84.00
2019-02-16T04:00:53.027Z,84.09
2019-02-16T04:02:46.915Z,84.19
2019-02-16T04:03:46.924Z,84.19
2019-02-16T04:05:39.822Z,84.47
2019-02-16T04:06:39.824Z,84.09
2019-02-16T04:08:32.715Z,84.00
2019-02-16T04:09:32.723Z,84.19
2019-02-16T04:11:25.622Z,84.09
2019-02-16T04:12:25.623Z,84.19
2019-02-16T04:14:18.522Z,84.09
2019-02-16T04:15:18.540Z,84.09
2019-02-16T04:17:11.417Z,84.19
2019-02-16T04:18:11.424Z,84.09
2019-02-16T04:20:04.327Z,84.38
2019-02-16T04:21:04.325Z,84.00
2019-02-16T04:22:57.211Z,84.19
2019-02-16T04:23:57.228Z,84.19
2019-02-16T04:25:50.126Z,84.28
2019-02-16T04:26:50.127Z,84.28
2019-02-16T04:28:43.025Z,84.75
2019-02-16T04:29:43.024Z,84.38
2019-02-16T04:31:35.927Z,84.66
2019-02-16T04:32:35.929Z,84.66
2019-02-16T04:34:28.823Z,84.75
2019-02-16T04:35:28.826Z,84.56
2019-02-16T04:37:21.721Z,84.28
2019-02-16T04:38:21.725Z,84.28
2019-02-16T04:40:14.623Z,84.66
2019-02-16T04:41:14.625Z,84.28
2019-02-16T04:43:07.548Z,84.47
2019-02-16T04:44:07.557Z,84.28
2019-02-16T04:46:00.456Z,84.56
2019-02-16T04:47:00.463Z,84.38
2019-02-16T04:48:53.347Z,84.28
2019-02-16T04:49:53.357Z,84.38
2019-02-16T04:51:46.257Z,84.66
2019-02-16T04:52:46.261Z,84.56
2019-02-16T04:54:40.408Z,84.66
2019-02-16T04:55:39.160Z,84.47
2019-02-16T04:57:32.054Z,84.66
2019-02-16T04:58:32.057Z,84.38
2019-02-16T05:00:24.955Z,84.94
2019-02-16T05:01:24.955Z,84.56
2019-02-16T05:03:17.862Z,85.13
2019-02-16T05:04:17.857Z,84.75
2019-02-16T05:06:10.758Z,85.23
2019-02-16T05:07:10.758Z,85.04
2019-02-16T05:09:03.706Z,84.75
2019-02-16T05:10:03.655Z,85.13
2019-02-16T05:11:56.555Z,84.66
2019-02-16T05:12:56.559Z,84.85
2019-02-16T05:14:49.470Z,84.56
2019-02-16T05:15:49.460Z,84.66
2019-02-16T05:17:42.351Z,84.94
2019-02-16T05:18:42.354Z,84.94
2019-02-16T05:20:35.320Z,84.94
2019-02-16T05:21:35.254Z,84.94
2019-02-16T05:23:28.145Z,84.94
2019-02-16T05:24:28.153Z,85.13
2019-02-16T05:26:21.049Z,85.42
2019-02-16T05:27:21.049Z,85.23
2019-02-16T05:29:13.942Z,85.51
2019-02-16T05:30:13.948Z,85.61
2019-02-16T05:32:06.851Z,85.80
2019-02-16T05:33:06.848Z,85.23
2019-02-16T05:34:59.748Z,85.42
2019-02-16T05:35:59.749Z,85.42
2019-02-16T05:37:52.646Z,85.42
2019-02-16T05:38:52.654Z,85.42
2019-02-16T05:40:45.550Z,85.61
2019-02-16T05:41:45.550Z,85.42
2019-02-16T05:43:38.442Z,85.42
2019-02-16T05:44:38.453Z,85.51
2019-02-16T05:46:31.351Z,86.08
2019-02-16T05:47:31.356Z,85.80
2019-02-16T05:49:24.239Z,85.80
2019-02-16T05:50:24.247Z,85.70
2019-02-16T05:52:17.142Z,85.70
2019-02-16T05:53:17.143Z,85.80
2019-02-16T05:55:10.041Z,85.42
2019-02-16T05:56:10.041Z,85.42
2019-02-16T05:58:02.933Z,85.99
2019-02-16T05:59:02.937Z,86.36
2019-02-16T06:00:55.832Z,86.08
2019-02-16T06:01:55.835Z,86.08
2019-02-16T06:03:48.729Z,86.22
2019-02-16T06:04:48.731Z,86.08
2019-02-16T06:06:41.637Z,86.36
2019-02-16T06:07:41.632Z,86.32
2019-02-16T06:09:34.520Z,86.41
2019-02-16T06:10:34.529Z,86.22
2019-02-16T06:12:27.429Z,86.18
2019-02-16T06:13:27.428Z,86.27
2019-02-16T06:15:20.365Z,85.85
2019-02-16T06:16:20.330Z,85.94
2019-02-16T06:18:13.220Z,86.13
2019-02-16T06:19:13.229Z,86.13
2019-02-16T06:21:06.130Z,86.32
2019-02-16T06:22:06.237Z,86.22
2019-02-16T06:23:59.050Z,86.22
2019-02-16T06:24:59.023Z,86.22
2019-02-16T06:26:51.926Z,86.89
2019-02-16T06:27:51.926Z,86.89
2019-02-16T06:29:44.820Z,86.79
2019-02-16T06:30:44.824Z,86.60
2019-02-16T06:32:37.723Z,86.83
2019-02-16T06:33:37.725Z,86.65
2019-02-16T06:35:31.107Z,86.70
2019-02-16T06:36:31.116Z,86.93
2019-02-16T06:38:24.014Z,86.83
2019-02-16T06:39:24.014Z,86.74
2019-02-16T06:41:16.911Z,87.08
2019-02-16T06:42:16.910Z,86.27
2019-02-16T06:44:09.802Z,85.94
2019-02-16T06:45:09.807Z,85.94
2019-02-16T06:47:02.708Z,86.51
2019-02-16T06:48:02.705Z,86.13
2019-02-16T06:49:55.597Z,86.98
2019-02-16T06:50:55.602Z,86.79
2019-02-16T06:52:48.503Z,86.74
2019-02-16T06:53:48.503Z,86.89
2019-02-16T06:55:41.396Z,86.93
2019-02-16T06:56:41.404Z,86.89
2019-02-16T06:58:34.301Z,86.98
2019-02-16T06:59:34.300Z,87.02
2019-02-16T07:01:27.199Z,86.93
2019-02-16T07:02:27.198Z,86.89
2019-02-16T07:04:20.086Z,86.98
2019-02-16T07:05:20.094Z,86.89
2019-02-16T07:07:12.995Z,86.83
2019-02-16T07:08:12.994Z,86.70
2019-02-16T07:10:05.929Z,86.98
2019-02-16T07:11:05.908Z,86.98
2019-02-16T07:12:58.807Z,86.51
2019-02-16T07:13:58.809Z,86.74
2019-02-16T07:15:51.697Z,86.65
2019-02-16T07:16:51.711Z,87.21
2019-02-16T07:18:44.608Z,87.02
2019-02-16T07:19:44.608Z,87.12
2019-02-16T07:21:37.506Z,87.12
2019-02-16T07:22:37.510Z,87.12
2019-02-16T07:24:30.402Z,86.74
2019-02-16T07:25:30.412Z,87.12
2019-02-16T07:27:23.323Z,86.65
2019-02-16T07:28:23.327Z,86.83
2019-02-16T07:30:16.226Z,86.60
2019-02-16T07:31:16.243Z,86.55
2019-02-16T07:33:09.647Z,86.12
2019-02-16T07:34:09.647Z,86.31
2019-02-16T07:36:02.543Z,85.74
2019-02-16T07:37:02.556Z,85.17
2019-02-16T07:38:55.452Z,84.80
2019-02-16T07:39:55.450Z,84.99
2019-02-16T07:41:48.352Z,85.08
2019-02-16T07:42:48.356Z,84.99
2019-02-16T07:44:41.258Z,85.27
2019-02-16T07:45:41.254Z,85.27
2019-02-16T07:47:34.148Z,85.55
2019-02-16T07:48:34.155Z,85.17
2019-02-16T07:50:27.049Z,84.80
2019-02-16T07:51:27.054Z,84.99
2019-02-16T07:53:19.947Z,84.99
2019-02-16T07:54:19.957Z,84.42
2019-02-16T07:56:12.854Z,84.32
2019-02-16T07:57:12.856Z,84.46
2019-02-16T07:59:05.809Z,84.65
2019-02-16T08:00:05.760Z,84.84
2019-02-16T08:01:58.664Z,84.08
2019-02-16T08:02:58.666Z,84.36
2019-02-16T08:04:51.561Z,83.70
2019-02-16T08:05:51.571Z,83.70
2019-02-16T08:07:44.483Z,83.51
2019-02-16T08:08:44.470Z,83.51
2019-02-16T08:10:37.379Z,83.55
2019-02-16T08:11:37.370Z,82.60
2019-02-16T08:13:30.283Z,83.27
2019-02-16T08:14:30.272Z,82.70
2019-02-16T08:16:23.199Z,82.60
2019-02-16T08:17:23.174Z,81.66
2019-02-16T08:19:16.112Z,81.56
2019-02-16T08:20:16.078Z,81.47
2019-02-16T08:22:09.026Z,81.47
2019-02-16T08:23:08.993Z,81.18
2019-02-16T08:25:01.919Z,79.80
2019-02-16T08:26:01.885Z,80.27
2019-02-16T08:27:54.789Z,79.61
2019-02-16T08:28:54.790Z,79.61
2019-02-16T08:30:47.700Z,78.56
2019-02-16T08:31:47.691Z,78.56
2019-02-16T08:33:40.601Z,78.09
2019-02-16T08:34:40.597Z,77.90
2019-02-16T08:36:33.503Z,77.62
2019-02-16T08:37:33.500Z,76.61
2019-02-16T08:39:26.409Z,76.14
2019-02-16T08:40:26.415Z,76.23
2019-02-16T08:42:19.308Z,75.09
2019-02-16T08:43:19.311Z,74.81
2019-02-16T08:45:12.204Z,74.81
2019-02-16T08:46:12.214Z,74.62
2019-02-16T08:48:05.113Z,74.43
2019-02-16T08:49:05.118Z,74.52
2019-02-16T08:50:58.013Z,74.43
2019-02-16T08:51:58.023Z,75.09
2019-02-16T08:53:50.940Z,74.37
2019-02-16T08:54:50.927Z,74.75
2019-02-16T08:56:43.824Z,74.37
2019-02-16T08:57:43.874Z,73.52
2019-02-16T08:59:36.734Z,73.90
2019-02-16T09:00:36.738Z,73.33
2019-02-16T09:02:29.642Z,73.14
2019-02-16T09:03:29.651Z,73.33
2019-02-16T09:05:22.581Z,73.18
2019-02-16T09:06:22.593Z,72.79
2019-02-16T09:08:15.497Z,72.79
2019-02-16T09:09:15.500Z,72.32
2019-02-16T09:11:08.396Z,71.18
2019-02-16T09:12:08.407Z,71.66
2019-02-16T09:14:01.346Z,71.08
2019-02-16T09:15:01.353Z,70.70
2019-02-16T09:16:54.258Z,70.70
2019-02-16T09:17:54.315Z,70.51
2019-02-16T09:19:47.276Z,70.36
2019-02-16T09:20:47.413Z,69.98
2019-02-16T09:22:40.173Z,69.50
2019-02-16T09:23:40.179Z,70.17
2019-02-16T09:25:33.123Z,69.50
2019-02-16T09:26:33.085Z,69.12
2019-02-16T09:28:26.015Z,69.12
2019-02-16T09:29:26.090Z,69.44
2019-02-16T09:31:18.920Z,68.96
2019-02-16T09:32:18.915Z,68.68
2019-02-16T09:34:11.987Z,68.21
2019-02-16T09:35:11.857Z,67.92
2019-02-16T09:37:04.778Z,67.44
2019-02-16T09:38:04.817Z,67.35
2019-02-16T09:39:57.696Z,67.44
2019-02-16T09:40:57.702Z,67.00
2019-02-16T09:42:50.603Z,66.53
2019-02-16T09:43:50.606Z,66.62
2019-02-16T09:45:43.501Z,66.62
2019-02-16T09:46:43.515Z,66.53
2019-02-16T09:48:36.421Z,66.05
2019-02-16T09:49:36.425Z,66.33
2019-02-16T09:51:29.324Z,65.58
2019-02-16T09:52:29.336Z,65.67
2019-02-16T09:54:22.245Z,65.77
2019-02-16T09:55:22.801Z,65.89
2019-02-16T09:57:15.144Z,65.80
2019-02-16T09:58:15.155Z,65.51
2019-02-16T10:00:08.063Z,65.23
2019-02-16T10:01:08.086Z,65.13
2019-02-16T10:03:00.972Z,64.84
2019-02-16T10:04:00.976Z,64.94
2019-02-16T10:05:53.873Z,64.65
2019-02-16T10:06:53.898Z,64.59
2019-02-16T10:08:46.797Z,64.59
2019-02-16T10:09:46.798Z,64.02
2019-02-16T10:11:39.696Z,64.21
2019-02-16T10:12:39.710Z,64.21
2019-02-16T10:14:32.619Z,64.21
2019-02-16T10:15:32.619Z,63.92
2019-02-16T10:17:26.173Z,64.02
2019-02-16T10:18:25.559Z,63.92
2019-02-16T10:20:18.440Z,64.72
2019-02-16T10:21:18.447Z,65.20
2019-02-16T10:23:11.463Z,64.24
2019-02-16T10:24:17.712Z,64.24
2019-02-16T10:26:04.780Z,63.57
2019-02-16T10:27:04.788Z,63.67
2019-02-16T10:28:57.717Z,62.81
2019-02-16T10:29:57.727Z,63.20
2019-02-16T10:31:50.611Z,61.38
2019-02-16T10:32:50.623Z,61.29
2019-02-16T10:34:43.529Z,62.15
2019-02-16T10:35:43.536Z,61.89
2019-02-16T10:37:36.433Z,62.18
2019-02-16T10:38:36.445Z,61.41
2019-02-16T10:40:29.378Z,61.80
2019-02-16T10:41:29.363Z,61.13
2019-02-16T10:43:22.267Z,61.22
2019-02-16T10:44:22.273Z,61.32
2019-02-16T10:46:15.169Z,60.27
2019-02-16T10:47:15.185Z,60.11
2019-02-16T10:49:08.095Z,59.63
2019-02-16T10:50:08.106Z,59.63
2019-02-16T10:52:01.015Z,59.44
2019-02-16T10:53:01.030Z,58.97
2019-02-16T10:54:54.432Z,58.97
2019-02-16T10:55:54.437Z,58.58
2019-02-16T10:57:47.343Z,58.68
2019-02-16T10:58:47.352Z,58.97
2019-02-16T11:00:40.270Z,57.82
2019-02-16T11:01:40.267Z,57.24
2019-02-16T11:03:33.219Z,57.75
2019-02-16T11:04:38.106Z,57.56
2019-02-16T11:06:26.185Z,57.65
2019-02-16T11:07:26.132Z,57.46
2019-02-16T11:09:19.089Z,57.28
2019-02-16T11:10:19.045Z,57.37
2019-02-16T11:12:11.973Z,56.70
2019-02-16T11:13:11.962Z,56.80
2019-02-16T11:15:04.871Z,57.37
2019-02-16T11:16:04.881Z,57.56
2019-02-16T11:17:57.781Z,57.18
2019-02-16T11:18:57.807Z,55.75
2019-02-16T11:20:50.726Z,56.25
2019-02-16T11:21:50.709Z,55.96
2019-02-16T11:23:45.390Z,56.54
2019-02-16T11:24:43.637Z,56.06
2019-02-16T11:26:36.532Z,56.25
2019-02-16T11:27:36.540Z,54.53
2019-02-16T11:29:29.450Z,55.40
2019-02-16T11:30:29.458Z,55.68
2019-02-16T11:32:22.355Z,55.77
2019-02-16T11:33:22.370Z,55.58
2019-02-16T11:35:15.281Z,55.58
2019-02-16T11:36:15.290Z,55.11
2019-02-16T11:38:08.191Z,55.40
2019-02-16T11:39:08.208Z,55.40
2019-02-16T11:41:02.111Z,55.58
2019-02-16T11:42:02.118Z,55.58
2019-02-16T11:43:55.031Z,55.58
2019-02-16T11:44:55.047Z,55.58
2019-02-16T11:46:47.960Z,55.49
2019-02-16T11:47:47.967Z,55.80
2019-02-16T11:49:40.878Z,55.68
2019-02-16T11:50:40.883Z,55.52
2019-02-16T11:52:33.786Z,55.40
2019-02-16T11:53:33.855Z,55.80
2019-02-16T11:55:26.750Z,55.90
2019-02-16T11:56:26.719Z,55.99
2019-02-16T11:58:19.635Z,55.99
2019-02-16T11:59:19.639Z,55.71
2019-02-16T12:01:13.543Z,55.71
2019-02-16T12:02:13.550Z,56.18
2019-02-16T12:04:06.475Z,56.67
2019-02-16T12:05:06.467Z,56.28
2019-02-16T12:06:59.381Z,55.90
2019-02-16T12:07:59.390Z,55.52
2019-02-16T12:09:52.296Z,55.52
2019-02-16T12:10:52.303Z,55.99
2019-02-16T12:12:45.208Z,55.80
2019-02-16T12:13:45.220Z,55.61
2019-02-16T12:15:38.134Z,55.61
2019-02-16T12:16:38.142Z,55.61
2019-02-16T12:18:31.043Z,55.80
2019-02-16T12:19:31.061Z,55.42
2019-02-16T12:21:23.971Z,55.32
2019-02-16T12:22:23.990Z,55.07
2019-02-16T12:24:16.884Z,54.68
2019-02-16T12:25:16.898Z,54.30
2019-02-16T12:27:09.822Z,54.49
2019-02-16T12:28:09.817Z,54.30
2019-02-16T12:30:02.734Z,53.73
2019-02-16T12:31:02.755Z,53.34
2019-02-16T12:32:55.645Z,53.34
2019-02-16T12:33:55.660Z,52.96
2019-02-16T12:35:49.073Z,53.16
2019-02-16T12:36:49.083Z,52.58
2019-02-16T12:38:41.997Z,52.87
2019-02-16T12:39:42.011Z,52.58
2019-02-16T12:41:34.923Z,52.48
2019-02-16T12:42:34.930Z,52.48
2019-02-16T12:44:27.835Z,52.20
2019-02-16T12:45:27.848Z,52.87
2019-02-16T12:47:20.763Z,52.48
2019-02-16T12:48:20.778Z,52.67
2019-02-16T12:50:13.678Z,53.53
2019-02-16T12:51:13.684Z,52.96
2019-02-16T12:53:06.601Z,53.37
2019-02-16T12:54:06.699Z,53.25
2019-02-16T12:55:59.521Z,53.47
2019-02-16T12:56:59.524Z,53.66
2019-02-16T12:58:52.430Z,53.66
2019-02-16T12:59:52.457Z,53.47
2019-02-16T13:01:45.371Z,53.18
2019-02-16T13:02:45.381Z,52.80
2019-02-16T13:04:38.285Z,52.61
2019-02-16T13:05:38.300Z,52.32
2019-02-16T13:07:31.210Z,51.93
2019-02-16T13:08:31.240Z,52.51
2019-02-16T13:10:24.154Z,52.70
2019-02-16T13:11:24.154Z,52.89
2019-02-16T13:13:17.045Z,52.42
2019-02-16T13:14:17.086Z,51.93
2019-02-16T13:16:09.969Z,51.93
2019-02-16T13:17:10.005Z,52.03
2019-02-16T13:19:02.881Z,51.56
2019-02-16T13:20:02.896Z,51.27
2019-02-16T13:21:55.884Z,51.46
2019-02-16T13:22:55.894Z,51.20
2019-02-16T13:24:48.800Z,51.65
2019-02-16T13:25:48.818Z,50.70
2019-02-16T13:27:41.728Z,51.27
2019-02-16T13:28:41.735Z,51.48
2019-02-16T13:30:34.658Z,51.39
2019-02-16T13:31:34.679Z,51.48
2019-02-16T13:33:27.587Z,51.01
2019-02-16T13:34:27.596Z,51.58
2019-02-16T13:36:20.509Z,51.58
2019-02-16T13:37:20.516Z,51.58
2019-02-16T13:39:13.425Z,51.39
2019-02-16T13:40:13.478Z,50.81
2019-02-16T13:42:06.359Z,51.01
2019-02-16T13:43:06.358Z,50.43
2019-02-16T13:44:59.263Z,50.72
2019-02-16T13:45:59.281Z,50.34
2019-02-16T13:47:52.191Z,50.24
2019-02-16T13:48:52.198Z,49.29
2019-02-16T13:50:45.105Z,49.76
2019-02-16T13:51:45.127Z,50.05
2019-02-16T13:53:38.030Z,50.05
2019-02-16T13:54:38.041Z,50.15
2019-02-16T13:56:30.955Z,50.15
2019-02-16T13:57:30.966Z,50.15
2019-02-16T13:59:23.873Z,50.46
2019-02-16T14:00:23.883Z,50.52
2019-02-16T14:02:16.797Z,50.34
2019-02-16T14:03:16.804Z,50.43
2019-02-16T14:05:09.710Z,50.43
2019-02-16T14:06:09.743Z,50.72
2019-02-16T14:08:02.636Z,50.72
2019-02-16T14:09:02.648Z,50.43
2019-02-16T14:10:55.553Z,50.43
2019-02-16T14:11:55.563Z,50.74
2019-02-16T14:13:48.482Z,50.65
2019-02-16T14:14:48.487Z,50.17
2019-02-16T14:16:41.402Z,50.36
2019-02-16T14:17:41.410Z,50.46
2019-02-16T14:19:34.316Z,50.56
2019-02-16T14:20:34.332Z,50.56
2019-02-16T14:22:27.792Z,49.79
2019-02-16T14:23:28.508Z,49.50
2019-02-16T14:25:20.170Z,49.79
2019-02-16T14:26:20.187Z,49.50
2019-02-16T14:28:13.110Z,48.73
2019-02-16T14:29:13.109Z,48.93
2019-02-16T14:31:06.020Z,48.93
2019-02-16T14:32:06.036Z,49.02
2019-02-16T14:33:59.003Z,48.83
2019-02-16T14:34:58.966Z,49.50
2019-02-16T14:36:51.881Z,48.73
2019-02-16T14:37:51.890Z,48.73
2019-02-16T14:39:44.809Z,47.87
2019-02-16T14:40:44.825Z,47.87
2019-02-16T14:42:37.746Z,47.30
2019-02-16T14:43:37.757Z,47.58
2019-02-16T14:45:30.687Z,48.16
2019-02-16T14:46:30.707Z,48.16
2019-02-16T14:48:23.614Z,48.16
2019-02-16T14:49:23.623Z,48.16
2019-02-16T14:51:16.530Z,48.25
2019-02-16T14:52:16.547Z,48.25
2019-02-16T14:54:09.458Z,48.16
2019-02-16T14:55:09.468Z,48.16
2019-02-16T14:57:02.382Z,48.16
2019-02-16T14:58:02.391Z,48.16
2019-02-16T14:59:55.295Z,48.16
2019-02-16T15:00:57.002Z,48.16
2019-02-16T15:02:48.227Z,48.07
2019-02-16T15:03:48.236Z,48.25
2019-02-16T15:05:41.146Z,48.35
2019-02-16T15:06:41.160Z,48.16
2019-02-16T15:08:34.075Z,48.44
2019-02-16T15:09:34.080Z,48.54
2019-02-16T15:11:26.988Z,47.97
2019-02-16T15:12:27.004Z,48.16
2019-02-16T15:14:19.917Z,48.54
2019-02-16T15:15:19.928Z,48.07
2019-02-16T15:17:12.841Z,48.16
2019-02-16T15:18:12.849Z,47.11
2019-02-16T15:20:05.762Z,47.11
2019-02-16T15:21:05.770Z,47.87
2019-02-16T15:22:58.688Z,48.16
2019-02-16T15:23:58.700Z,47.97
2019-02-16T15:26:00.507Z,47.08
2019-02-16T15:26:51.618Z,46.91
2019-02-16T15:28:44.529Z,47.75
2019-02-16T15:29:44.538Z,47.87
2019-02-16T15:31:37.447Z,47.97
2019-02-16T15:32:37.464Z,48.07
2019-02-16T15:34:30.379Z,47.94
2019-02-16T15:35:30.385Z,48.23
2019-02-16T15:37:23.314Z,48.23
2019-02-16T15:38:23.348Z,48.13
2019-02-16T15:40:16.215Z,47.47
2019-02-16T15:41:16.227Z,46.98
2019-02-16T15:43:09.227Z,47.18
2019-02-16T15:44:10.669Z,47.27
2019-02-16T15:46:02.065Z,46.89
2019-02-16T15:47:02.079Z,47.27
2019-02-16T15:48:55.032Z,47.94
2019-02-16T15:49:55.032Z,47.82
2019-02-16T15:51:47.994Z,47.16
2019-02-16T15:52:47.966Z,47.25
2019-02-16T15:54:40.886Z,48.11
2019-02-16T15:55:40.878Z,47.92
2019-02-16T15:57:33.787Z,47.92
2019-02-16T15:58:33.849Z,48.30
2019-02-16T16:00:26.741Z,48.78
2019-02-16T16:01:26.726Z,48.39
2019-02-16T16:03:19.639Z,48.78
2019-02-16T16:04:21.439Z,48.30
2019-02-16T16:06:12.563Z,48.95
2019-02-16T16:07:12.583Z,49.33
2019-02-16T16:09:05.503Z,49.14
2019-02-16T16:10:05.515Z,49.04
2019-02-16T16:11:58.425Z,48.95
2019-02-16T16:12:58.440Z,49.33
2019-02-16T16:14:52.345Z,49.14
2019-02-16T16:15:52.356Z,49.62
2019-02-16T16:17:45.286Z,49.52
2019-02-16T16:18:45.274Z,49.59
2019-02-16T16:20:38.185Z,50.07
2019-02-16T16:21:38.196Z,50.16
2019-02-16T16:23:31.127Z,50.26
2019-02-16T16:24:32.521Z,50.35
2019-02-16T16:26:24.020Z,50.64
2019-02-16T16:27:24.034Z,51.70
2019-02-16T16:29:16.950Z,51.79
2019-02-16T16:30:16.949Z,51.57
2019-02-16T16:32:09.862Z,51.76
2019-02-16T16:33:09.872Z,51.67
2019-02-16T16:35:02.792Z,51.67
2019-02-16T16:36:02.799Z,51.86
2019-02-16T16:37:55.710Z,52.15
2019-02-16T16:38:55.721Z,52.15
2019-02-16T16:40:48.628Z,53.20
2019-02-16T16:41:48.637Z,52.98
2019-02-16T16:43:41.555Z,53.27
2019-02-16T16:44:41.551Z,53.27
2019-02-16T16:46:34.502Z,53.17
2019-02-16T16:47:34.506Z,53.17
2019-02-16T16:49:27.445Z,53.65
2019-02-16T16:50:27.429Z,53.45
2019-02-16T16:52:20.334Z,53.55
2019-02-16T16:53:20.388Z,54.00
2019-02-16T16:55:13.257Z,54.38
2019-02-16T16:56:13.261Z,54.57
2019-02-16T16:58:07.257Z,54.29
2019-02-16T16:59:07.272Z,54.00
2019-02-16T17:01:00.274Z,54.57
2019-02-16T17:02:00.219Z,54.48
2019-02-16T17:03:53.119Z,54.57
2019-02-16T17:04:53.187Z,54.57
2019-02-16T17:06:46.041Z,54.48
2019-02-16T17:07:46.048Z,54.48
2019-02-16T17:09:38.999Z,55.43
2019-02-16T17:10:39.067Z,55.21
2019-02-16T17:12:34.794Z,55.34
2019-02-16T17:13:32.402Z,55.69
2019-02-16T17:15:25.306Z,56.07
2019-02-16T17:16:25.320Z,56.26
2019-02-16T17:18:18.217Z,56.26
2019-02-16T17:19:18.226Z,57.03
2019-02-16T17:21:11.142Z,57.03
2019-02-16T17:22:11.148Z,57.31
2019-02-16T17:24:04.047Z,57.60
2019-02-16T17:25:04.794Z,57.98
2019-02-16T17:26:56.976Z,57.60
2019-02-16T17:27:56.983Z,58.04
2019-02-16T17:29:49.881Z,58.62
2019-02-16T17:30:49.891Z,58.33
2019-02-16T17:32:42.802Z,59.00
2019-02-16T17:33:42.809Z,59.09
2019-02-16T17:35:35.716Z,59.19
2019-02-16T17:36:35.729Z,59.38
2019-02-16T17:38:28.634Z,58.81
2019-02-16T17:39:28.640Z,59.09
2019-02-16T17:41:22.047Z,59.48
2019-02-16T17:42:22.054Z,59.38
2019-02-16T17:44:14.952Z,59.74
2019-02-16T17:45:14.967Z,59.74
2019-02-16T17:47:07.914Z,60.97
2019-02-16T17:48:07.889Z,60.78
2019-02-16T17:50:00.821Z,61.54
2019-02-16T17:51:00.828Z,61.54
2019-02-16T17:52:53.745Z,62.68
2019-02-16T17:53:53.768Z,62.21
2019-02-16T17:55:46.652Z,62.97
2019-02-16T17:56:47.085Z,62.78
2019-02-16T17:58:39.575Z,63.45
2019-02-16T17:59:39.580Z,63.23
2019-02-16T18:01:32.491Z,63.32
2019-02-16T18:02:32.496Z,63.70
2019-02-16T18:04:25.409Z,63.89
2019-02-16T18:05:25.413Z,63.51
2019-02-16T18:07:18.329Z,63.51
2019-02-16T18:08:18.338Z,63.80
2019-02-16T18:10:11.233Z,64.47
2019-02-16T18:11:11.255Z,64.08
2019-02-16T18:13:04.158Z,64.84
2019-02-16T18:14:04.164Z,65.13
2019-02-16T18:15:57.106Z,65.13
2019-02-16T18:16:57.075Z,65.03
2019-02-16T18:18:49.990Z,65.99
2019-02-16T18:19:49.985Z,65.89
2019-02-16T18:21:42.891Z,66.05
2019-02-16T18:22:42.903Z,65.95
2019-02-16T18:24:35.816Z,65.95
2019-02-16T18:25:35.842Z,66.05
2019-02-16T18:27:28.733Z,66.24
2019-02-16T18:28:28.735Z,67.00
2019-02-16T18:30:21.654Z,66.81
2019-02-16T18:31:21.644Z,67.19
2019-02-16T18:33:14.561Z,67.57